createdAt,value
2022-10-17T00:01:31.364Z,100.00
2022-10-17T00:03:58.194Z,100.00
2022-10-17T00:06:24.879Z,100.00
2022-10-17T00:08:51.715Z,100.00
2022-10-17T00:11:21.884Z,100.00
2022-10-17T00:13:50.539Z,100.00
2022-10-17T00:16:26.590Z,100.00
2022-10-17T00:18:53.303Z,100.00
2022-10-17T00:21:21.732Z,100.00
2022-10-17T00:23:48.583Z,100.00
2022-10-17T00:26:16.546Z,100.00
2022-10-17T00:28:46.477Z,100.00
2022-10-17T00:31:13.457Z,100.00
2022-10-17T00:33:40.172Z,100.00
2022-10-17T00:36:19.108Z,100.00
2022-10-17T00:38:47.548Z,100.00
2022-10-17T00:41:18.007Z,100.00
2022-10-17T00:43:58.480Z,100.00
2022-10-17T00:46:36.778Z,100.00
2022-10-17T00:49:10.750Z,100.00
2022-10-17T00:51:45.611Z,100.00
2022-10-17T00:54:13.536Z,100.00
2022-10-17T00:56:40.657Z,100.00
2022-10-17T00:59:12.452Z,100.00
2022-10-17T01:01:41.778Z,100.00
2022-10-17T01:04:08.558Z,100.00
2022-10-17T01:06:35.217Z,100.00
2022-10-17T01:09:02.034Z,100.00
2022-10-17T01:11:39.858Z,100.00
2022-10-17T01:14:16.712Z,100.00
2022-10-17T01:16:52.349Z,100.00
2022-10-17T01:19:58.904Z,100.00
2022-10-17T01:23:06.771Z,100.00
2022-10-17T01:25:48.327Z,100.00
2022-10-17T01:28:39.856Z,100.00
2022-10-17T01:31:06.620Z,100.00
2022-10-17T01:34:01.507Z,100.00
2022-10-17T01:36:56.463Z,100.00
2022-10-17T01:40:01.868Z,100.00
2022-10-17T01:42:39.411Z,100.00
2022-10-17T01:45:20.037Z,100.00
2022-10-17T01:47:50.887Z,100.00
2022-10-17T01:50:24.231Z,100.00
2022-10-17T01:52:59.470Z,100.00
2022-10-17T01:55:31.894Z,100.00
2022-10-17T01:58:04.239Z,100.00
2022-10-17T02:00:32.496Z,100.00
2022-10-17T02:03:02.623Z,100.00
2022-10-17T02:05:33.771Z,100.00
2022-10-17T02:08:00.476Z,100.00
2022-10-17T02:10:42.679Z,100.00
2022-10-17T02:13:47.858Z,100.00
2022-10-17T02:16:20.239Z,100.00
2022-10-17T02:18:49.709Z,100.00
2022-10-17T02:21:26.048Z,100.00
2022-10-17T02:23:55.987Z,100.00
2022-10-17T02:26:33.980Z,100.00
2022-10-17T02:29:13.169Z,100.00
2022-10-17T02:31:43.368Z,100.00
2022-10-17T02:34:31.004Z,100.00
2022-10-17T02:37:02.170Z,100.00
2022-10-17T02:39:31.700Z,100.00
2022-10-17T02:42:02.845Z,100.00
2022-10-17T02:44:32.057Z,100.00
2022-10-17T02:47:11.599Z,100.00
2022-10-17T02:49:43.997Z,100.00
2022-10-17T02:52:15.174Z,100.00
2022-10-17T02:55:00.492Z,100.00
2022-10-17T02:57:42.628Z,100.00
2022-10-17T03:00:12.290Z,100.00
2022-10-17T03:02:45.154Z,100.00
2022-10-17T03:05:14.117Z,100.00
2022-10-17T03:07:40.780Z,100.00
2022-10-17T03:10:07.733Z,100.00
2022-10-17T03:12:34.605Z,100.00
2022-10-17T03:15:01.217Z,100.00
2022-10-17T03:17:27.935Z,100.00
2022-10-17T03:19:54.602Z,100.00
2022-10-17T03:22:21.189Z,100.00
2022-10-17T03:24:47.840Z,100.00
2022-10-17T03:27:14.649Z,100.00
2022-10-17T03:29:41.329Z,100.00
2022-10-17T03:32:08.066Z,100.00
2022-10-17T03:34:35.029Z,100.00
2022-10-17T03:37:01.796Z,100.00
2022-10-17T03:39:28.475Z,100.00
2022-10-17T03:41:55.251Z,100.00
2022-10-17T03:44:21.936Z,100.00
2022-10-17T03:46:48.732Z,100.00
2022-10-17T03:49:15.483Z,100.00
2022-10-17T03:51:42.174Z,100.00
2022-10-17T03:54:08.862Z,100.00
2022-10-17T03:56:35.497Z,100.00
2022-10-17T03:59:02.175Z,100.00
2022-10-17T04:01:28.863Z,100.00
2022-10-17T04:03:56.773Z,100.00
2022-10-17T04:06:24.003Z,100.00
2022-10-17T04:08:50.945Z,100.00
2022-10-17T04:11:20.617Z,100.00
2022-10-17T04:13:47.853Z,100.00
2022-10-17T04:16:17.346Z,100.00
2022-10-17T04:18:44.515Z,100.00
2022-10-17T04:21:12.626Z,100.00
2022-10-17T04:23:39.829Z,100.00
2022-10-17T04:26:06.911Z,100.00
2022-10-17T04:28:34.023Z,100.00
2022-10-17T04:31:04.381Z,100.00
2022-10-17T04:33:32.310Z,100.00
2022-10-17T04:36:01.267Z,100.00
2022-10-17T04:38:29.332Z,100.00
2022-10-17T04:41:05.533Z,100.00
2022-10-17T04:43:36.602Z,100.00
2022-10-17T04:46:11.215Z,100.00
2022-10-17T04:48:39.135Z,100.00
2022-10-17T04:51:12.043Z,100.00
2022-10-17T04:53:39.666Z,100.00
2022-10-17T04:56:18.608Z,100.00
2022-10-17T04:58:46.115Z,100.00
2022-10-17T05:01:16.448Z,100.00
2022-10-17T05:03:43.353Z,100.00
2022-10-17T05:06:12.524Z,100.00
2022-10-17T05:08:39.490Z,100.00
2022-10-17T05:11:15.089Z,100.00
2022-10-17T05:13:41.793Z,100.00
2022-10-17T05:16:08.418Z,100.00
2022-10-17T05:18:35.032Z,100.00
2022-10-17T05:21:04.041Z,100.00
2022-10-17T05:23:30.961Z,100.00
2022-10-17T05:25:57.705Z,100.00
2022-10-17T05:28:24.399Z,100.00
2022-10-17T05:30:51.242Z,100.00
2022-10-17T05:33:18.001Z,100.00
2022-10-17T05:35:44.705Z,100.00
2022-10-17T05:38:11.416Z,100.00
2022-10-17T05:40:39.539Z,100.00
2022-10-17T05:43:06.475Z,100.00
2022-10-17T05:45:33.155Z,100.00
2022-10-17T05:47:59.953Z,100.00
2022-10-17T05:50:26.685Z,100.00
2022-10-17T05:52:54.806Z,100.00
2022-10-17T05:55:22.766Z,100.00
2022-10-17T05:57:50.566Z,100.00
2022-10-17T06:00:17.497Z,100.00
2022-10-17T06:02:47.820Z,100.00
2022-10-17T06:05:14.926Z,100.00
2022-10-17T06:07:41.811Z,100.00
2022-10-17T06:10:09.440Z,100.00
2022-10-17T06:12:36.193Z,100.00
2022-10-17T06:15:02.917Z,100.00
2022-10-17T06:17:30.485Z,100.00
2022-10-17T06:19:57.597Z,100.00
2022-10-17T06:22:24.230Z,100.00
2022-10-17T06:24:52.644Z,100.00
2022-10-17T06:27:20.102Z,100.00
2022-10-17T06:29:47.806Z,100.00
2022-10-17T06:32:15.317Z,100.00
2022-10-17T06:34:42.135Z,100.00
2022-10-17T06:37:08.773Z,100.00
2022-10-17T06:39:35.980Z,100.00
2022-10-17T06:42:04.225Z,100.00
2022-10-17T06:44:32.020Z,100.00
2022-10-17T06:46:59.572Z,100.00
2022-10-17T06:49:26.854Z,100.00
2022-10-17T06:51:53.673Z,100.00
2022-10-17T06:54:20.582Z,100.00
2022-10-17T06:56:47.322Z,100.00
2022-10-17T06:59:15.653Z,100.00
2022-10-17T07:01:46.150Z,100.00
2022-10-17T07:04:14.201Z,100.00
2022-10-17T07:06:41.042Z,100.00
2022-10-17T07:09:08.143Z,100.00
2022-10-17T07:11:35.377Z,100.00
2022-10-17T07:14:03.041Z,100.00
2022-10-17T07:16:29.718Z,100.00
2022-10-17T07:18:56.554Z,100.00
2022-10-17T07:21:23.206Z,100.00
2022-10-17T07:23:50.179Z,100.00
2022-10-17T07:26:18.686Z,100.00
2022-10-17T07:28:47.099Z,100.00
2022-10-17T07:31:17.020Z,100.00
2022-10-17T07:36:12.231Z,100.00
2022-10-17T07:38:39.557Z,100.00
2022-10-17T07:41:08.549Z,100.00
2022-10-17T07:43:36.523Z,100.00
2022-10-17T07:46:04.447Z,100.00
2022-10-17T07:48:31.070Z,100.00
2022-10-17T07:50:57.913Z,100.00
2022-10-17T07:53:24.594Z,100.00
2022-10-17T07:55:51.695Z,100.00
2022-10-17T07:58:18.525Z,100.00
2022-10-17T08:00:48.506Z,100.00
2022-10-17T08:03:15.375Z,100.00
2022-10-17T08:05:42.348Z,100.00
2022-10-17T08:08:09.009Z,100.00
2022-10-17T08:10:35.681Z,100.00
2022-10-17T08:13:03.112Z,100.00
2022-10-17T08:15:31.840Z,100.00
2022-10-17T08:17:59.468Z,100.00
2022-10-17T08:20:26.747Z,100.00
2022-10-17T08:22:57.028Z,100.00
2022-10-17T08:25:23.933Z,100.00
2022-10-17T08:27:50.632Z,100.00
2022-10-17T08:30:17.897Z,100.00
2022-10-17T08:32:44.559Z,100.00
2022-10-17T08:35:11.771Z,100.00
2022-10-17T08:37:38.469Z,100.00
2022-10-17T08:40:05.644Z,100.00
2022-10-17T08:42:51.138Z,100.00
2022-10-17T08:45:38.698Z,100.00
2022-10-17T08:48:11.624Z,100.00
2022-10-17T08:51:01.856Z,100.00
2022-10-17T08:53:34.832Z,100.00
2022-10-17T08:56:15.363Z,100.00
2022-10-17T08:58:46.973Z,100.00
2022-10-17T09:01:35.201Z,100.00
2022-10-17T09:04:20.053Z,100.00
2022-10-17T09:07:00.334Z,100.00
2022-10-17T09:09:35.939Z,100.00
2022-10-17T09:12:15.088Z,100.00
2022-10-17T09:15:06.626Z,100.00
2022-10-17T09:17:42.541Z,100.00
2022-10-17T09:20:20.922Z,100.00
2022-10-17T09:23:00.091Z,100.00
2022-10-17T09:25:28.063Z,100.00
2022-10-17T09:28:06.249Z,98.36
2022-10-17T09:30:45.974Z,100.00
2022-10-17T09:33:35.320Z,98.47
2022-10-17T09:36:05.787Z,99.80
2022-10-17T09:38:44.690Z,96.38
2022-10-17T09:41:44.706Z,95.04
2022-10-17T09:44:33.077Z,95.67
2022-10-17T09:47:11.724Z,95.52
2022-10-17T09:49:40.837Z,94.55
2022-10-17T09:52:18.511Z,94.29
2022-10-17T09:54:55.079Z,93.14
2022-10-17T09:57:22.543Z,93.83
2022-10-17T10:00:00.862Z,96.21
2022-10-17T10:02:30.475Z,92.90
2022-10-17T10:05:17.691Z,92.83
2022-10-17T10:08:00.783Z,90.31
2022-10-17T10:10:29.407Z,88.48
2022-10-17T10:13:06.173Z,88.91
2022-10-17T10:15:37.740Z,88.61
2022-10-17T10:21:09.405Z,91.80
2022-10-17T10:23:40.847Z,92.34
2022-10-17T10:26:35.661Z,89.82
2022-10-17T10:29:05.874Z,88.06
2022-10-17T10:31:37.235Z,87.36
2022-10-17T10:34:20.549Z,88.61
2022-10-17T10:36:53.041Z,89.18
2022-10-17T10:39:34.439Z,89.85
2022-10-17T10:42:03.281Z,88.84
2022-10-17T10:44:32.248Z,92.16
2022-10-17T10:47:21.966Z,88.82
2022-10-17T10:49:51.683Z,87.29
2022-10-17T10:52:28.494Z,89.37
2022-10-17T10:55:19.851Z,90.09
2022-10-17T10:57:49.269Z,88.59
2022-10-17T11:00:21.273Z,85.82
2022-10-17T11:03:21.935Z,87.97
2022-10-17T11:05:54.156Z,88.82
2022-10-17T11:08:48.384Z,87.09
2022-10-17T11:11:28.479Z,89.06
2022-10-17T11:14:20.842Z,89.83
2022-10-17T11:17:10.502Z,88.89
2022-10-17T11:19:44.773Z,89.41
2022-10-17T11:22:29.134Z,88.14
2022-10-17T11:25:25.438Z,87.66
2022-10-17T11:27:52.074Z,88.06
2022-10-17T11:30:19.358Z,90.33
2022-10-17T11:33:01.139Z,86.95
2022-10-17T11:35:38.076Z,87.93
2022-10-17T11:38:18.750Z,87.55
2022-10-17T11:40:51.505Z,88.06
2022-10-17T11:43:31.315Z,89.31
2022-10-17T11:46:19.139Z,88.85
2022-10-17T11:48:58.579Z,87.08
2022-10-17T11:54:39.099Z,87.08
2022-10-17T11:57:24.457Z,89.13
2022-10-17T12:00:22.243Z,88.77
2022-10-17T12:03:22.854Z,92.51
2022-10-17T12:05:52.842Z,89.82
2022-10-17T12:08:57.628Z,89.84
2022-10-17T12:11:37.212Z,85.66
2022-10-17T12:14:23.911Z,89.06
2022-10-17T12:16:51.088Z,89.94
2022-10-17T12:19:24.909Z,87.10
2022-10-17T12:21:56.339Z,89.32
2022-10-17T12:24:44.138Z,92.43
2022-10-17T12:27:39.909Z,91.49
2022-10-17T12:30:12.751Z,91.46
2022-10-17T12:33:07.571Z,92.86
2022-10-17T12:35:36.988Z,93.01
2022-10-17T12:38:29.971Z,94.10
2022-10-17T12:40:57.863Z,92.90
2022-10-17T12:43:27.478Z,94.35
2022-10-17T12:46:02.636Z,94.93
2022-10-17T12:48:38.570Z,95.60
2022-10-17T12:51:35.294Z,95.08
2022-10-17T12:54:02.364Z,97.45
2022-10-17T12:56:36.445Z,97.90
2022-10-17T12:59:27.970Z,97.38
2022-10-17T13:02:04.168Z,97.12
2022-10-17T13:04:31.986Z,95.99
2022-10-17T13:07:01.108Z,97.80
2022-10-17T13:09:37.764Z,100.00
2022-10-17T13:12:11.932Z,96.96
2022-10-17T13:14:41.090Z,97.64
2022-10-17T13:17:20.587Z,97.31
2022-10-17T13:19:47.295Z,100.00
2022-10-17T13:22:26.030Z,98.27
2022-10-17T13:25:06.535Z,100.00
2022-10-17T13:27:36.072Z,100.00
2022-10-17T13:30:32.009Z,100.00
2022-10-17T13:32:59.829Z,100.00
2022-10-17T13:35:58.762Z,100.00
2022-10-17T13:38:28.941Z,100.00
2022-10-17T13:41:01.949Z,100.00
2022-10-17T13:43:38.901Z,100.00
2022-10-17T13:46:32.583Z,100.00
2022-10-17T13:48:53.544Z,100.00
2022-10-17T13:51:20.427Z,100.00
2022-10-17T13:53:47.040Z,100.00
2022-10-17T13:56:27.824Z,100.00
2022-10-17T13:59:05.129Z,100.00
2022-10-17T14:01:32.337Z,100.00
2022-10-17T14:04:19.485Z,100.00
2022-10-17T14:06:49.679Z,100.00
2022-10-17T14:09:21.239Z,100.00
2022-10-17T14:12:12.856Z,100.00
2022-10-17T14:15:08.704Z,100.00
2022-10-17T14:17:30.164Z,100.00
2022-10-17T14:20:34.426Z,100.00
2022-10-17T14:23:17.496Z,100.00
2022-10-17T14:25:40.425Z,100.00
2022-10-17T14:28:14.159Z,100.00
2022-10-17T14:30:56.412Z,100.00
2022-10-17T14:33:28.532Z,100.00
2022-10-17T14:35:57.622Z,100.00
2022-10-17T14:38:25.318Z,100.00
2022-10-17T14:41:30.581Z,100.00
2022-10-17T14:44:00.885Z,100.00
2022-10-17T14:46:28.053Z,100.00
2022-10-17T14:49:07.547Z,100.00
2022-10-17T14:51:44.833Z,100.00
2022-10-17T14:54:32.765Z,100.00
2022-10-17T14:56:59.539Z,100.00
2022-10-17T14:59:52.266Z,100.00
2022-10-17T15:02:13.704Z,100.00
2022-10-17T15:04:40.581Z,100.00
2022-10-17T15:07:07.387Z,100.00
2022-10-17T15:09:34.001Z,100.00
2022-10-17T15:12:05.142Z,100.00
2022-10-17T15:14:31.899Z,100.00
2022-10-17T15:16:58.478Z,100.00
2022-10-17T15:19:25.077Z,100.00
2022-10-17T15:21:51.712Z,100.00
2022-10-17T15:24:18.332Z,100.00
2022-10-17T15:26:45.018Z,100.00
2022-10-17T15:29:16.182Z,100.00
2022-10-17T15:31:42.991Z,100.00
2022-10-17T15:34:09.613Z,100.00
2022-10-17T15:36:40.996Z,100.00
2022-10-17T15:39:07.931Z,100.00
2022-10-17T15:41:34.724Z,100.00
2022-10-17T15:44:01.556Z,100.00
2022-10-17T15:46:30.858Z,100.00
2022-10-17T15:49:02.533Z,100.00
2022-10-17T15:51:29.249Z,100.00
2022-10-17T15:53:55.973Z,100.00
2022-10-17T15:56:26.528Z,100.00
2022-10-17T15:58:53.496Z,100.00
2022-10-17T16:01:24.874Z,100.00
2022-10-17T16:03:52.104Z,100.00
2022-10-17T16:06:20.225Z,100.00
2022-10-17T16:08:48.064Z,100.00
2022-10-17T16:11:42.487Z,100.00
2022-10-17T16:14:15.006Z,100.00
2022-10-17T16:16:41.846Z,100.00
2022-10-17T16:19:09.117Z,100.00
2022-10-17T16:21:38.391Z,100.00
2022-10-17T16:24:06.373Z,100.00
2022-10-17T16:26:33.177Z,100.00
2022-10-17T16:29:02.978Z,100.00
2022-10-17T16:31:34.864Z,100.00
2022-10-17T16:34:02.975Z,100.00
2022-10-17T16:36:29.683Z,100.00
2022-10-17T16:38:56.443Z,100.00
2022-10-17T16:41:24.510Z,100.00
2022-10-17T16:43:53.235Z,100.00
2022-10-17T16:46:20.754Z,100.00
2022-10-17T16:48:47.851Z,100.00
2022-10-17T16:51:16.477Z,100.00
2022-10-17T16:53:45.775Z,100.00
2022-10-17T16:56:14.941Z,100.00
2022-10-17T16:58:42.874Z,100.00
2022-10-17T17:01:13.103Z,100.00
2022-10-17T17:03:42.131Z,100.00
2022-10-17T17:06:12.250Z,100.00
2022-10-17T17:08:39.052Z,100.00
2022-10-17T17:11:10.691Z,100.00
2022-10-17T17:13:37.780Z,100.00
2022-10-17T17:16:12.952Z,100.00
2022-10-17T17:18:40.296Z,100.00
2022-10-17T17:21:09.279Z,100.00
2022-10-17T17:23:38.109Z,100.00
2022-10-17T17:26:07.927Z,100.00
2022-10-17T17:28:35.522Z,100.00
2022-10-17T17:31:02.650Z,100.00
2022-10-17T17:33:30.245Z,100.00
2022-10-17T17:36:01.272Z,100.00
2022-10-17T17:38:33.397Z,100.00
2022-10-17T17:41:00.622Z,100.00
2022-10-17T17:43:27.981Z,100.00
2022-10-17T17:45:54.680Z,100.00
2022-10-17T17:48:21.808Z,100.00
2022-10-17T17:50:49.216Z,100.00
2022-10-17T17:53:17.017Z,100.00
2022-10-17T17:55:43.723Z,100.00
2022-10-17T17:58:12.356Z,100.00
2022-10-17T18:00:40.682Z,100.00
2022-10-17T18:03:07.834Z,100.00
2022-10-17T18:05:34.573Z,100.00
2022-10-17T18:08:01.387Z,100.00
2022-10-17T18:10:29.492Z,100.00
2022-10-17T18:12:56.215Z,100.00
2022-10-17T18:15:22.916Z,100.00
2022-10-17T18:17:49.714Z,100.00
2022-10-17T18:20:16.479Z,100.00
2022-10-17T18:22:43.103Z,100.00
2022-10-17T18:25:09.847Z,100.00
2022-10-17T18:27:36.805Z,100.00
2022-10-17T18:30:04.124Z,100.00
2022-10-17T18:32:32.291Z,100.00
2022-10-17T18:34:59.207Z,100.00
2022-10-17T18:37:25.939Z,100.00
2022-10-17T18:39:55.328Z,100.00
2022-10-17T18:42:22.006Z,100.00
2022-10-17T18:44:48.897Z,100.00
2022-10-17T18:47:16.299Z,100.00
2022-10-17T18:49:43.033Z,100.00
2022-10-17T18:52:09.723Z,100.00
2022-10-17T18:54:36.402Z,100.00
2022-10-17T18:57:03.148Z,100.00
2022-10-17T18:59:29.813Z,100.00
2022-10-17T19:01:56.515Z,100.00
2022-10-17T19:04:23.332Z,100.00
2022-10-17T19:06:50.013Z,100.00
2022-10-17T19:09:16.767Z,100.00
2022-10-17T19:11:43.685Z,100.00
2022-10-17T19:14:15.505Z,100.00
2022-10-17T19:16:45.351Z,100.00
2022-10-17T19:19:15.084Z,100.00
2022-10-17T19:21:42.572Z,100.00
2022-10-17T19:24:16.418Z,100.00
2022-10-17T19:26:44.413Z,100.00
2022-10-17T19:29:15.617Z,100.00
2022-10-17T19:31:42.939Z,100.00
2022-10-17T19:34:11.130Z,100.00
2022-10-17T19:36:38.494Z,100.00
2022-10-17T19:39:08.665Z,100.00
2022-10-17T19:41:36.464Z,100.00
2022-10-17T19:44:03.551Z,100.00
2022-10-17T19:46:31.510Z,100.00
2022-10-17T19:48:58.511Z,100.00
2022-10-17T19:51:26.357Z,100.00
2022-10-17T19:53:54.919Z,100.00
2022-10-17T19:56:23.168Z,100.00
2022-10-17T19:58:50.810Z,100.00
2022-10-17T20:01:21.027Z,100.00
2022-10-17T20:03:47.888Z,100.00
2022-10-17T20:06:15.249Z,100.00
2022-10-17T20:08:42.256Z,100.00
2022-10-17T20:11:16.974Z,100.00
2022-10-17T20:13:44.885Z,100.00
2022-10-17T20:16:15.245Z,100.00
2022-10-17T20:18:42.552Z,100.00
2022-10-17T20:21:15.343Z,100.00
2022-10-17T20:23:43.373Z,100.00
2022-10-17T20:26:26.069Z,100.00
2022-10-17T20:29:02.183Z,100.00
2022-10-17T20:31:29.211Z,100.00
2022-10-17T20:33:57.281Z,100.00
2022-10-17T20:36:24.571Z,100.00
2022-10-17T20:38:55.876Z,100.00
2022-10-17T20:41:23.495Z,100.00
2022-10-17T20:43:52.082Z,100.00
2022-10-17T20:46:35.109Z,100.00
2022-10-17T20:49:03.885Z,100.00
2022-10-17T20:51:30.562Z,100.00
2022-10-17T20:56:29.942Z,100.00
2022-10-17T20:59:00.405Z,100.00
2022-10-17T21:01:28.204Z,100.00
2022-10-17T21:03:55.071Z,100.00
2022-10-17T21:06:22.190Z,100.00
2022-10-17T21:08:49.500Z,100.00
2022-10-17T21:11:22.550Z,100.00
2022-10-17T21:13:58.433Z,100.00
2022-10-17T21:16:26.490Z,100.00
2022-10-17T21:18:53.843Z,100.00
2022-10-17T21:21:24.722Z,100.00
2022-10-17T21:23:51.672Z,100.00
2022-10-17T21:26:18.764Z,100.00
2022-10-17T21:28:46.784Z,100.00
2022-10-17T21:31:22.713Z,100.00
2022-10-17T21:33:54.436Z,100.00
2022-10-17T21:36:21.719Z,100.00
2022-10-17T21:38:50.134Z,100.00
2022-10-17T21:41:19.694Z,100.00
2022-10-17T21:43:47.143Z,100.00
2022-10-17T21:46:16.506Z,100.00
2022-10-17T21:48:44.334Z,100.00
2022-10-17T21:51:13.897Z,100.00
2022-10-17T21:53:41.232Z,100.00
2022-10-17T21:56:11.107Z,100.00
2022-10-17T21:58:38.024Z,100.00
2022-10-17T22:01:10.217Z,100.00
2022-10-17T22:03:42.659Z,100.00
2022-10-17T22:09:00.912Z,100.00
2022-10-17T22:11:31.307Z,100.00
2022-10-17T22:14:02.025Z,100.00
2022-10-17T22:16:28.954Z,100.00
2022-10-17T22:19:06.178Z,100.00
2022-10-17T22:21:35.539Z,100.00
2022-10-17T22:24:06.121Z,100.00
2022-10-17T22:26:35.015Z,100.00
2022-10-17T22:29:02.165Z,100.00
2022-10-17T22:31:28.886Z,100.00
2022-10-17T22:33:55.860Z,100.00
2022-10-17T22:36:22.832Z,100.00
2022-10-17T22:38:49.585Z,100.00
2022-10-17T22:41:16.342Z,100.00
2022-10-17T22:43:43.052Z,100.00
2022-10-17T22:46:10.501Z,100.00
2022-10-17T22:48:37.120Z,100.00
2022-10-17T22:51:03.792Z,100.00
2022-10-17T22:53:30.498Z,100.00
2022-10-17T22:56:01.873Z,100.00
2022-10-17T22:58:30.545Z,100.00
2022-10-17T23:00:57.645Z,100.00
2022-10-17T23:03:26.469Z,100.00
2022-10-17T23:05:53.159Z,100.00
2022-10-17T23:08:19.786Z,100.00
2022-10-17T23:10:47.519Z,100.00
2022-10-17T23:13:16.786Z,100.00
2022-10-17T23:15:43.632Z,100.00
2022-10-17T23:18:10.418Z,100.00
2022-10-17T23:20:37.806Z,100.00
2022-10-17T23:23:04.633Z,100.00
2022-10-17T23:25:33.664Z,100.00
2022-10-17T23:28:00.744Z,100.00
2022-10-17T23:30:27.650Z,100.00
2022-10-17T23:32:54.272Z,100.00
2022-10-17T23:35:20.890Z,100.00
2022-10-17T23:37:47.545Z,100.00
2022-10-17T23:40:14.385Z,100.00
2022-10-17T23:42:41.097Z,100.00
2022-10-17T23:45:08.483Z,100.00
2022-10-17T23:47:35.107Z,100.00
2022-10-17T23:50:01.873Z,100.00
2022-10-17T23:52:28.479Z,100.00
2022-10-17T23:54:55.089Z,100.00
2022-10-17T23:57:21.797Z,100.00
2022-10-17T23:59:48.413Z,100.00
